Terminal Aerodrome Forecast
Issued by NWS

Home | Current Version | Previous Version | Text Only | Print | Product List | Glossary On
Versions: 1 2 3 4 5 6 7 8 9 10 11 12 13 14
000
FTUS44 KEPZ 241130
TAFLRU
TAF
KLRU 241130Z 2412/2512 VRB05KT P6SM FEW250
     FM241700 26006KT P6SM FEW080
     FM242000 29011KT P6SM SCT090 SCT150 SCT250
     FM250100 26007KT P6SM FEW070 SCT130 SCT250=

USA.gov is the U.S. government's official web portal to all federal, state and local government web resources and services.